Time;durP1;ratioP1;P1;durP2;ratioP2;P2;SDS_P1;SDS_P2;PMS_P1;PMS_P2;Temp;Humidity;BMP_temperature;BMP_pressure;BME280_temperature;BME280_humidity;BME280_pressure;Samples;Min_cycle;Max_cycle;Signal;HPM_P1;HPM_P2
2023/08/08 00:04:30;;;;;;;8.23;2.70;;;;;13.20;101088.00;;;;10238969;28;20254;-77
2023/08/08 00:09:32;;;;;;;5.73;2.20;;;;;13.20;101086.00;;;;10243953;28;20773;-75
2023/08/08 00:14:33;;;;;;;7.70;2.90;;;;;13.20;101092.00;;;;10261430;28;20207;-75
2023/08/08 00:19:34;;;;;;;4.47;2.70;;;;;13.20;101083.00;;;;10260006;28;20207;-78
2023/08/08 00:24:36;;;;;;;7.33;2.70;;;;;13.20;101083.00;;;;10243036;28;20211;-75
2023/08/08 00:29:37;;;;;;;13.70;2.33;;;;;13.10;101069.00;;;;10242998;28;20274;-76
2023/08/08 00:34:38;;;;;;;10.40;2.60;;;;;13.20;101065.00;;;;10258509;28;20689;-75
2023/08/08 00:39:45;;;;;;;5.80;2.80;;;;;13.10;101066.00;;;;10259068;28;21519;-78
2023/08/08 00:44:47;;;;;;;8.37;2.70;;;;;13.10;101058.00;;;;10257185;28;20215;-76
2023/08/08 00:49:48;;;;;;;5.53;2.57;;;;;13.10;101061.00;;;;10257684;28;20226;-75
2023/08/08 00:54:50;;;;;;;10.50;3.20;;;;;13.10;101057.00;;;;10243280;28;20866;-76
2023/08/08 00:59:51;;;;;;;7.43;2.90;;;;;13.00;101048.00;;;;10258582;28;20208;-76
2023/08/08 01:04:53;;;;;;;8.70;3.03;;;;;13.00;101055.00;;;;10241607;28;20889;-75
2023/08/08 01:10:08;;;;;;;6.23;3.60;;;;;13.10;101053.00;;;;10255726;28;20247;-78
2023/08/08 01:15:11;;;;;;;9.77;3.90;;;;;13.00;101051.00;;;;10239743;28;21342;-76
2023/08/08 01:20:16;;;;;;;10.77;3.67;;;;;13.00;101037.00;;;;10255336;28;20907;-77
2023/08/08 01:25:19;;;;;;;8.50;3.67;;;;;13.00;101039.00;;;;10256985;28;20704;-77
2023/08/08 01:30:21;;;;;;;13.77;3.87;;;;;12.90;101047.00;;;;10256302;28;20328;-75
2023/08/08 01:35:25;;;;;;;12.17;3.77;;;;;12.90;101040.00;;;;10255818;28;20832;-76
2023/08/08 01:40:29;;;;;;;14.20;4.37;;;;;12.90;101043.00;;;;10241459;28;20215;-76
2023/08/08 01:45:30;;;;;;;10.57;4.37;;;;;12.80;101037.00;;;;10237461;28;20276;-77
2023/08/08 01:50:31;;;;;;;11.83;4.17;;;;;12.80;101041.00;;;;10255245;28;20226;-77
2023/08/08 01:55:33;;;;;;;10.03;4.13;;;;;12.80;101018.00;;;;10239919;28;21313;-75
2023/08/08 02:00:34;;;;;;;14.50;5.00;;;;;12.80;101022.00;;;;10234958;28;20207;-76
2023/08/08 02:05:35;;;;;;;16.90;4.90;;;;;12.70;101020.00;;;;10237914;28;20284;-75
2023/08/08 02:10:36;;;;;;;12.67;4.17;;;;;12.70;101015.00;;;;10218917;28;20220;-75
2023/08/08 02:15:38;;;;;;;10.67;4.20;;;;;12.80;101014.00;;;;10255076;28;20214;-76
2023/08/08 02:20:39;;;;;;;12.23;4.03;;;;;12.70;101005.00;;;;10254199;28;21362;-75
2023/08/08 02:25:40;;;;;;;10.27;4.40;;;;;12.70;101006.00;;;;10235544;28;20297;-74
2023/08/08 02:30:42;;;;;;;15.67;4.97;;;;;12.70;101005.00;;;;10244651;28;20413;-75
2023/08/08 02:35:45;;;;;;;15.63;5.00;;;;;12.70;100999.00;;;;10260921;28;20211;-76
2023/08/08 02:40:46;;;;;;;9.40;4.90;;;;;12.60;101004.00;;;;10259154;28;20207;-75
2023/08/08 02:45:47;;;;;;;14.10;4.63;;;;;12.60;101011.00;;;;10261920;28;20605;-75
2023/08/08 02:50:49;;;;;;;11.40;5.00;;;;;12.60;100998.00;;;;10241624;28;20358;-76
2023/08/08 02:55:57;;;;;;;10.60;4.70;;;;;12.50;100997.00;;;;10240498;28;20803;-75
2023/08/08 03:00:59;;;;;;;12.87;4.93;;;;;12.50;100996.00;;;;10242886;28;20630;-75
2023/08/08 03:06:01;;;;;;;16.67;4.83;;;;;12.50;101004.00;;;;10240371;28;21442;-76
2023/08/08 03:11:03;;;;;;;12.00;4.70;;;;;12.40;101003.00;;;;10225767;28;20231;-76
2023/08/08 03:16:04;;;;;;;12.57;4.70;;;;;12.40;101002.00;;;;10256592;28;20245;-76
2023/08/08 03:21:06;;;;;;;10.87;5.20;;;;;12.40;101005.00;;;;10242513;28;20293;-75
2023/08/08 03:26:09;;;;;;;10.17;4.63;;;;;12.30;100994.00;;;;10228340;28;20298;-75
2023/08/08 03:31:11;;;;;;;15.20;5.37;;;;;12.30;100993.00;;;;10255376;28;20661;-75
2023/08/08 03:36:12;;;;;;;14.20;5.27;;;;;12.20;100995.00;;;;10226681;28;20574;-76
2023/08/08 03:41:13;;;;;;;11.80;4.93;;;;;12.20;100994.00;;;;10259752;28;22206;-75
2023/08/08 03:46:15;;;;;;;23.87;6.83;;;;;12.20;100989.00;;;;10240301;28;20258;-76
2023/08/08 03:51:16;;;;;;;13.10;5.40;;;;;12.20;100984.00;;;;10257269;28;21656;-75
2023/08/08 03:56:18;;;;;;;15.40;6.27;;;;;12.20;100992.00;;;;10240125;28;20203;-76
2023/08/08 04:01:19;;;;;;;14.70;6.07;;;;;12.20;100985.00;;;;10258475;28;20810;-76
2023/08/08 04:06:21;;;;;;;17.80;7.00;;;;;12.10;100989.00;;;;10256862;28;20573;-75
2023/08/08 04:11:22;;;;;;;20.60;7.73;;;;;12.10;100994.00;;;;10258184;28;20223;-75
2023/08/08 04:16:25;;;;;;;19.00;7.47;;;;;12.10;100982.00;;;;10241708;28;20313;-76
2023/08/08 04:21:28;;;;;;;18.20;6.67;;;;;12.20;100973.00;;;;10257457;28;20594;-76
2023/08/08 04:26:29;;;;;;;22.00;7.40;;;;;12.20;100986.00;;;;10256275;28;20242;-75
2023/08/08 04:31:31;;;;;;;22.10;7.73;;;;;12.30;100974.00;;;;10258829;28;20649;-76
2023/08/08 04:36:33;;;;;;;11.33;7.03;;;;;12.40;100983.00;;;;10254603;28;20217;-75
2023/08/08 04:41:34;;;;;;;19.40;7.53;;;;;12.40;100973.00;;;;10239068;28;20222;-76
2023/08/08 04:46:35;;;;;;;16.10;6.80;;;;;12.50;100968.00;;;;10253507;28;20234;-75
2023/08/08 04:51:37;;;;;;;22.77;7.57;;;;;12.60;100977.00;;;;10238615;28;21337;-75
2023/08/08 04:56:38;;;;;;;17.40;7.43;;;;;12.70;100972.00;;;;10236923;28;20215;-76
2023/08/08 05:01:39;;;;;;;13.33;7.20;;;;;12.80;100975.00;;;;10236204;28;20310;-76
2023/08/08 05:06:41;;;;;;;18.63;7.33;;;;;13.00;100983.00;;;;10239448;28;20215;-76
2023/08/08 05:11:42;;;;;;;18.67;7.00;;;;;13.10;100969.00;;;;10237621;28;20242;-75
2023/08/08 05:16:43;;;;;;;17.90;6.77;;;;;13.30;100973.00;;;;10253975;28;20219;-76
2023/08/08 05:21:45;;;;;;;16.93;6.43;;;;;13.50;100983.00;;;;10238944;28;20215;-76
2023/08/08 05:26:46;;;;;;;18.73;6.37;;;;;13.60;100986.00;;;;10236101;28;20211;-75
2023/08/08 05:31:48;;;;;;;17.27;6.80;;;;;13.90;100993.00;;;;10255388;28;21510;-76
2023/08/08 05:36:49;;;;;;;22.13;6.37;;;;;14.20;100986.00;;;;10252231;28;20253;-75
2023/08/08 05:42:06;;;;;;;21.52;6.28;;;;;14.50;100996.00;;;;10253960;28;20576;-75
2023/08/08 05:47:08;;;;;;;15.00;5.20;;;;;15.20;100987.00;;;;10240091;28;20215;-75
2023/08/08 05:52:10;;;;;;;17.85;5.93;;;;;15.90;100992.00;;;;10251647;28;20238;-74
2023/08/08 05:57:11;;;;;;;12.13;4.85;;;;;16.10;101007.00;;;;10255676;28;20309;-76
2023/08/08 06:02:13;;;;;;;15.57;5.00;;;;;15.90;101017.00;;;;10220627;28;20210;-74
2023/08/08 06:07:14;;;;;;;16.42;4.80;;;;;15.60;101023.00;;;;10236285;28;20424;-75
2023/08/08 06:12:15;;;;;;;14.68;5.22;;;;;15.30;101019.00;;;;10254476;28;20281;-74
2023/08/08 06:17:17;;;;;;;20.77;5.15;;;;;15.40;101003.00;;;;10252809;28;20214;-74
2023/08/08 06:22:18;;;;;;;17.05;4.93;;;;;16.00;101007.00;;;;10254438;28;20937;-75
2023/08/08 06:27:19;;;;;;;15.75;3.75;;;;;16.80;101020.00;;;;10251945;28;20211;-75
2023/08/08 06:32:20;;;;;;;12.05;4.30;;;;;17.60;101021.00;;;;10251264;28;21105;-75
2023/08/08 06:37:22;;;;;;;21.67;3.63;;;;;18.10;101018.00;;;;10255779;28;20707;-75
2023/08/08 06:42:23;;;;;;;17.63;4.13;;;;;18.60;101014.00;;;;10253284;28;20211;-75
2023/08/08 06:47:30;;;;;;;14.15;3.72;;;;;19.30;101011.00;;;;10251922;28;20692;-75
2023/08/08 06:52:31;;;;;;;7.97;3.33;;;;;19.50;101010.00;;;;10236465;28;20871;-74
2023/08/08 06:57:33;;;;;;;10.05;3.58;;;;;19.10;101019.00;;;;10234911;28;20523;-75
2023/08/08 07:02:35;;;;;;;12.82;3.20;;;;;19.10;101025.00;;;;10251925;28;20207;-74
2023/08/08 07:07:36;;;;;;;8.98;3.13;;;;;19.60;101006.00;;;;10251678;28;20327;-75
2023/08/08 07:12:38;;;;;;;14.43;3.45;;;;;19.50;101010.00;;;;10254513;28;21308;-75
2023/08/08 07:17:39;;;;;;;11.52;3.28;;;;;19.50;101001.00;;;;10262890;28;20203;-75
2023/08/08 07:22:40;;;;;;;8.73;2.97;;;;;19.50;101000.00;;;;10260031;28;20207;-75
2023/08/08 07:27:42;;;;;;;9.48;3.30;;;;;19.40;100987.00;;;;10261329;28;20245;-75
2023/08/08 07:32:43;;;;;;;13.70;3.40;;;;;19.50;100995.00;;;;10258839;28;20211;-75
2023/08/08 07:37:45;;;;;;;10.90;2.97;;;;;19.70;101007.00;;;;10241206;28;20646;-75
2023/08/08 07:42:48;;;;;;;11.00;2.97;;;;;19.80;101006.00;;;;10261613;28;20227;-75
2023/08/08 07:47:49;;;;;;;10.10;3.00;;;;;19.70;101009.00;;;;10243101;28;20282;-74
2023/08/08 07:52:50;;;;;;;9.15;2.90;;;;;19.70;100997.00;;;;10257812;28;21861;-74
2023/08/08 07:57:51;;;;;;;14.75;3.67;;;;;19.90;100996.00;;;;10259360;28;20232;-75
2023/08/08 08:02:53;;;;;;;13.45;3.25;;;;;20.00;100991.00;;;;10226850;28;20922;-75
2023/08/08 08:07:54;;;;;;;9.75;3.25;;;;;20.00;100988.00;;;;10260244;28;20389;-76
2023/08/08 08:12:57;;;;;;;11.30;3.67;;;;;20.00;100995.00;;;;10243618;28;20203;-74
2023/08/08 08:17:59;;;;;;;14.52;3.50;;;;;20.00;100990.00;;;;10239942;28;21507;-76
2023/08/08 08:23:00;;;;;;;15.73;3.60;;;;;20.20;100984.00;;;;10243883;28;21394;-75
2023/08/08 08:28:02;;;;;;;10.55;3.70;;;;;20.40;100984.00;;;;10258349;28;20592;-76
2023/08/08 08:33:07;;;;;;;11.38;3.92;;;;;20.30;101000.00;;;;10257722;28;20230;-75
2023/08/08 08:38:08;;;;;;;9.27;4.13;;;;;20.30;101013.00;;;;10259186;28;20203;-75
2023/08/08 08:43:09;;;;;;;13.95;4.07;;;;;20.30;101015.00;;;;10257682;28;20362;-74
2023/08/08 08:48:12;;;;;;;9.45;4.18;;;;;20.20;101009.00;;;;10226957;28;20297;-75
2023/08/08 08:53:15;;;;;;;11.07;3.47;;;;;20.20;101019.00;;;;10239529;28;20199;-76
2023/08/08 08:58:17;;;;;;;8.02;3.53;;;;;20.40;101004.00;;;;10241446;28;20322;-75
2023/08/08 09:03:19;;;;;;;10.60;3.70;;;;;21.00;101008.00;;;;10260828;28;20298;-75
2023/08/08 09:08:21;;;;;;;11.18;3.08;;;;;22.10;101003.00;;;;10240831;28;20223;-76
2023/08/08 09:13:25;;;;;;;8.55;3.40;;;;;23.20;101006.00;;;;10257365;28;20620;-75
2023/08/08 09:18:27;;;;;;;7.13;2.60;;;;;23.80;101001.00;;;;10260098;28;20330;-75
2023/08/08 09:23:28;;;;;;;8.25;2.47;;;;;23.40;100989.00;;;;10257197;28;20228;-75
2023/08/08 09:28:30;;;;;;;7.82;2.80;;;;;22.80;101003.00;;;;10255830;28;20320;-75
2023/08/08 09:33:31;;;;;;;12.18;3.13;;;;;22.30;101001.00;;;;10255678;28;20704;-75
2023/08/08 09:38:32;;;;;;;9.98;2.90;;;;;24.10;101017.00;;;;10238337;28;20213;-76
2023/08/08 09:43:34;;;;;;;6.72;2.60;;;;;22.40;101011.00;;;;10242890;28;20211;-75
2023/08/08 09:48:39;;;;;;;4.80;2.25;;;;;22.60;101007.00;;;;10239551;28;20310;-76
2023/08/08 09:53:41;;;;;;;6.72;2.50;;;;;22.70;101009.00;;;;10238268;28;20426;-75
2023/08/08 09:58:43;;;;;;;8.55;2.38;;;;;22.40;101016.00;;;;10241749;28;20207;-75
2023/08/08 10:03:45;;;;;;;11.77;2.72;;;;;22.60;101013.00;;;;10257343;28;20496;-74
2023/08/08 10:08:47;;;;;;;5.65;2.17;;;;;22.80;101001.00;;;;10255196;28;20226;-76
2023/08/08 10:13:50;;;;;;;4.63;2.10;;;;;21.30;101019.00;;;;10238411;28;20906;-75
2023/08/08 10:18:57;;;;;;;6.63;1.98;;;;;20.40;101026.00;;;;10254134;28;20203;-74
2023/08/08 10:24:07;;;;;;;6.15;1.77;;;;;21.20;101026.00;;;;10255016;28;20226;-75
2023/08/08 10:29:17;;;;;;;4.95;1.90;;;;;21.40;101013.00;;;;10255095;28;20228;-76
2023/08/08 10:34:21;;;;;;;6.20;1.80;;;;;20.40;101023.00;;;;10255952;28;20215;-76
2023/08/08 10:39:24;;;;;;;7.70;2.58;;;;;19.90;101017.00;;;;10239450;28;20586;-75
2023/08/08 10:44:26;;;;;;;4.65;1.88;;;;;20.00;101019.00;;;;10256804;28;20563;-76
2023/08/08 10:49:27;;;;;;;5.57;1.88;;;;;20.40;101000.00;;;;10259041;28;20627;-74
2023/08/08 10:54:30;;;;;;;5.05;2.22;;;;;21.50;100994.00;;;;10246155;28;20369;-76
2023/08/08 10:59:38;;;;;;;7.30;2.13;;;;;21.80;100984.00;;;;10264260;28;20246;-74
2023/08/08 11:04:41;;;;;;;5.45;1.52;;;;;21.90;100993.00;;;;10260077;28;20211;-76
2023/08/08 11:09:43;;;;;;;4.68;2.58;;;;;22.20;100991.00;;;;10263410;28;20231;-75
2023/08/08 11:14:45;;;;;;;5.78;1.60;;;;;22.20;100992.00;;;;10262857;28;20789;-75
2023/08/08 11:19:46;;;;;;;5.53;1.70;;;;;23.00;101006.00;;;;10261165;28;20210;-75
2023/08/08 11:24:49;;;;;;;2.63;1.50;;;;;23.50;100996.00;;;;10262524;28;20306;-74
2023/08/08 11:29:51;;;;;;;3.40;1.50;;;;;24.80;100985.00;;;;10261895;28;20212;-76
2023/08/08 11:34:53;;;;;;;1.85;1.30;;;;;24.70;100996.00;;;;10264787;28;20802;-75
2023/08/08 11:39:54;;;;;;;3.08;1.45;;;;;24.10;100993.00;;;;10260415;28;20329;-76
2023/08/08 11:44:56;;;;;;;5.53;1.58;;;;;25.00;101003.00;;;;10243727;28;20906;-76
2023/08/08 11:49:57;;;;;;;2.30;1.42;;;;;24.80;100998.00;;;;10261026;28;20306;-75
2023/08/08 11:55:02;;;;;;;4.30;1.38;;;;;25.10;100984.00;;;;10244140;28;20277;-76
2023/08/08 12:00:08;;;;;;;3.35;1.30;;;;;25.10;100994.00;;;;10258234;28;21117;-75
2023/08/08 12:05:21;;;;;;;3.78;1.70;;;;;25.20;100992.00;;;;10258391;28;20207;-75
2023/08/08 12:10:23;;;;;;;2.50;1.13;;;;;25.20;100991.00;;;;10257610;28;20643;-75
2023/08/08 12:15:43;;;;;;;3.50;1.40;;;;;25.20;100972.00;;;;10240976;28;20310;-76
2023/08/08 12:20:51;;;;;;;2.47;1.50;;;;;26.50;100955.00;;;;10257098;28;20210;-75
2023/08/08 12:25:53;;;;;;;4.03;1.70;;;;;26.40;100975.00;;;;10254943;28;20226;-76
2023/08/08 12:30:55;;;;;;;2.72;1.40;;;;;24.90;100964.00;;;;10257563;28;20216;-75
2023/08/08 12:35:56;;;;;;;3.58;1.50;;;;;25.50;100956.00;;;;10224827;28;20644;-74
2023/08/08 12:41:01;;;;;;;1.52;1.20;;;;;26.50;100950.00;;;;10256714;28;20381;-75
2023/08/08 12:46:02;;;;;;;3.80;1.20;;;;;26.50;100944.00;;;;10258274;28;20229;-76
2023/08/08 12:51:04;;;;;;;4.25;1.20;;;;;25.50;100929.00;;;;10259039;28;20235;-75
2023/08/08 12:56:06;;;;;;;3.13;1.35;;;;;26.50;100938.00;;;;10256822;28;20345;-76
2023/08/08 13:01:07;;;;;;;2.65;1.38;;;;;24.80;100957.00;;;;10239290;28;20204;-76
2023/08/08 13:06:11;;;;;;;4.28;1.30;;;;;25.40;100940.00;;;;10222605;28;20255;-76
2023/08/08 13:11:12;;;;;;;3.97;1.38;;;;;24.80;100947.00;;;;10254217;28;20223;-75
2023/08/08 13:16:14;;;;;;;2.40;1.23;;;;;25.10;100952.00;;;;10242064;28;20589;-74
2023/08/08 13:21:15;;;;;;;1.90;1.10;;;;;25.10;100969.00;;;;10237472;28;20207;-75
2023/08/08 13:26:16;;;;;;;1.20;1.00;;;;;23.80;100977.00;;;;10257114;28;20218;-74
2023/08/08 13:31:19;;;;;;;4.05;1.15;;;;;24.10;100974.00;;;;10257192;28;20774;-76
2023/08/08 13:36:20;;;;;;;2.63;1.00;;;;;24.40;100973.00;;;;10256988;28;21179;-75
2023/08/08 13:41:22;;;;;;;3.03;1.20;;;;;25.20;100957.00;;;;10258545;28;20214;-75
2023/08/08 13:46:23;;;;;;;4.53;1.35;;;;;24.90;100971.00;;;;10257743;28;20357;-75
2023/08/08 13:51:24;;;;;;;3.83;1.70;;;;;24.50;100979.00;;;;10240234;28;20235;-76
2023/08/08 13:56:26;;;;;;;2.75;1.48;;;;;23.80;100972.00;;;;10240638;28;20214;-76
2023/08/08 14:01:27;;;;;;;3.20;1.50;;;;;25.50;100953.00;;;;10255708;28;20669;-75
2023/08/08 14:06:29;;;;;;;4.20;1.48;;;;;25.70;100953.00;;;;10255179;28;20249;-75
2023/08/08 14:11:30;;;;;;;3.00;1.40;;;;;24.70;100959.00;;;;10223156;28;20318;-75
2023/08/08 14:16:32;;;;;;;3.20;1.45;;;;;24.40;100961.00;;;;10237624;28;21477;-75
2023/08/08 14:21:33;;;;;;;3.95;1.33;;;;;24.20;100958.00;;;;10236153;28;20979;-75
2023/08/08 14:26:35;;;;;;;2.67;1.00;;;;;23.60;100958.00;;;;10245140;28;21462;-75
2023/08/08 14:31:36;;;;;;;1.60;1.00;;;;;22.40;100955.00;;;;10263354;28;20265;-75
2023/08/08 14:36:58;;;;;;;1.55;0.98;;;;;21.50;100946.00;;;;10262705;28;20886;-75
2023/08/08 14:42:00;;;;;;;1.83;1.00;;;;;21.20;100966.00;;;;10246234;28;20700;-76
2023/08/08 14:47:02;;;;;;;2.63;1.27;;;;;20.80;100956.00;;;;10245308;28;20227;-76
2023/08/08 14:52:04;;;;;;;3.17;1.38;;;;;20.80;100957.00;;;;10264308;28;21604;-74
2023/08/08 14:57:07;;;;;;;3.83;1.20;;;;;21.00;100955.00;;;;10230835;28;20881;-75
2023/08/08 15:02:08;;;;;;;1.77;1.00;;;;;20.80;100962.00;;;;10261076;28;21584;-74
2023/08/08 15:07:10;;;;;;;1.35;0.95;;;;;20.80;100943.00;;;;10262899;28;20234;-76
2023/08/08 15:12:16;;;;;;;1.52;1.20;;;;;21.20;100956.00;;;;10263064;28;20224;-75
2023/08/08 15:17:17;;;;;;;1.75;1.00;;;;;21.20;100975.00;;;;10260618;28;21463;-75
2023/08/08 15:22:18;;;;;;;3.17;1.13;;;;;21.10;100973.00;;;;10260627;28;20292;-76
2023/08/08 15:27:20;;;;;;;3.22;1.20;;;;;20.60;100965.00;;;;10243416;28;20199;-76
2023/08/08 15:32:22;;;;;;;4.85;1.42;;;;;19.90;100970.00;;;;10242708;28;20771;-75
2023/08/08 15:37:23;;;;;;;3.25;0.98;;;;;19.70;100973.00;;;;10259844;28;20207;-76
2023/08/08 15:42:24;;;;;;;1.17;0.80;;;;;20.20;100971.00;;;;10259886;28;20203;-74
2023/08/08 15:47:26;;;;;;;4.82;1.40;;;;;20.10;100982.00;;;;10260538;28;20661;-75
2023/08/08 15:52:27;;;;;;;2.33;1.10;;;;;20.10;100979.00;;;;10260999;28;20227;-76
2023/08/08 15:57:28;;;;;;;2.92;1.20;;;;;20.10;100974.00;;;;10259393;28;20222;-76
2023/08/08 16:02:30;;;;;;;1.77;0.95;;;;;19.70;100977.00;;;;10241797;28;21232;-76
2023/08/08 16:07:31;;;;;;;2.75;1.10;;;;;19.40;100974.00;;;;10262331;28;20211;-75
2023/08/08 16:12:35;;;;;;;1.10;0.90;;;;;19.10;100961.00;;;;10258272;28;20223;-74
2023/08/08 16:17:36;;;;;;;1.98;1.20;;;;;18.70;100964.00;;;;10260738;28;20222;-76
2023/08/08 16:22:38;;;;;;;1.85;1.63;;;;;18.50;100965.00;;;;10259420;28;20211;-75
2023/08/08 16:27:40;;;;;;;2.97;1.10;;;;;18.40;100970.00;;;;10260907;28;20760;-75
2023/08/08 16:32:43;;;;;;;2.45;1.58;;;;;18.20;100973.00;;;;10240262;28;20922;-75
2023/08/08 16:37:44;;;;;;;1.92;1.20;;;;;18.00;100970.00;;;;10242580;28;20252;-75
2023/08/08 16:42:45;;;;;;;2.35;1.33;;;;;18.10;100972.00;;;;10243307;28;20203;-75
2023/08/08 16:47:47;;;;;;;2.80;1.60;;;;;17.90;100977.00;;;;10261347;28;20219;-74
2023/08/08 16:52:48;;;;;;;4.05;1.75;;;;;17.70;100969.00;;;;10256558;28;20254;-76
2023/08/08 16:57:50;;;;;;;4.40;1.80;;;;;17.60;100975.00;;;;10260267;28;20822;-74
2023/08/08 17:02:51;;;;;;;3.97;1.70;;;;;17.50;100962.00;;;;10260486;28;20322;-74
2023/08/08 17:07:52;;;;;;;2.90;2.08;;;;;17.60;100956.00;;;;10257800;28;20592;-75
2023/08/08 17:12:54;;;;;;;4.28;2.05;;;;;17.80;100963.00;;;;10238899;28;20513;-74
2023/08/08 17:17:55;;;;;;;3.08;2.03;;;;;17.70;100958.00;;;;10226069;28;20913;-76
2023/08/08 17:22:57;;;;;;;4.90;2.50;;;;;17.30;100955.00;;;;10259712;28;20242;-75
2023/08/08 17:27:59;;;;;;;3.42;2.63;;;;;17.10;100954.00;;;;10258479;28;20997;-74
2023/08/08 17:33:00;;;;;;;4.00;1.95;;;;;16.80;100949.00;;;;10257301;28;20238;-74
2023/08/08 17:38:02;;;;;;;4.72;2.85;;;;;16.60;100949.00;;;;10241023;28;20304;-76
2023/08/08 17:43:03;;;;;;;4.90;2.58;;;;;16.40;100946.00;;;;10261186;28;20290;-76
2023/08/08 17:48:05;;;;;;;2.83;2.17;;;;;16.30;100941.00;;;;10259139;28;20231;-75
2023/08/08 17:53:06;;;;;;;2.97;1.98;;;;;16.10;100925.00;;;;10224351;28;20265;-75
2023/08/08 17:58:08;;;;;;;3.17;2.38;;;;;16.10;100931.00;;;;10259638;28;20203;-76
2023/08/08 18:03:09;;;;;;;6.00;2.63;;;;;16.00;100928.00;;;;10258386;28;20214;-75
2023/08/08 18:08:11;;;;;;;4.32;2.25;;;;;16.00;100912.00;;;;10256786;28;20686;-74
2023/08/08 18:13:12;;;;;;;2.72;1.90;;;;;15.90;100906.00;;;;10240693;28;20323;-74
2023/08/08 18:18:14;;;;;;;3.90;2.67;;;;;15.80;100903.00;;;;10256022;28;20222;-75
2023/08/08 18:23:16;;;;;;;3.58;2.35;;;;;15.70;100899.00;;;;10258518;28;20917;-74
2023/08/08 18:28:18;;;;;;;4.20;2.70;;;;;15.60;100903.00;;;;10255387;28;20219;-75
2023/08/08 18:33:19;;;;;;;5.90;2.83;;;;;15.50;100906.00;;;;10255601;28;20301;-75
2023/08/08 18:38:20;;;;;;;4.15;2.53;;;;;15.50;100915.00;;;;10256191;28;20211;-75
2023/08/08 18:43:22;;;;;;;7.65;3.00;;;;;15.40;100904.00;;;;10253832;28;20207;-75
2023/08/08 18:48:23;;;;;;;4.85;2.63;;;;;15.40;100908.00;;;;10257132;28;20218;-74
2023/08/08 18:53:25;;;;;;;5.97;2.58;;;;;15.30;100894.00;;;;10257990;28;20215;-76
2023/08/08 18:58:26;;;;;;;8.07;2.95;;;;;15.30;100903.00;;;;10238199;28;21289;-74
2023/08/08 19:03:27;;;;;;;5.22;2.83;;;;;15.30;100908.00;;;;10257692;28;20984;-75
2023/08/08 19:08:29;;;;;;;6.63;2.72;;;;;15.20;100886.00;;;;10258357;28;20238;-74
2023/08/08 19:13:30;;;;;;;6.88;3.38;;;;;15.20;100885.00;;;;10244982;28;20281;-75
2023/08/08 19:18:31;;;;;;;5.03;3.50;;;;;15.20;100876.00;;;;10245026;28;20345;-75
2023/08/08 19:23:33;;;;;;;4.57;3.30;;;;;15.20;100883.00;;;;10261944;28;20215;-75
2023/08/08 19:28:34;;;;;;;5.00;3.47;;;;;15.20;100880.00;;;;10244736;28;20611;-75
2023/08/08 19:33:35;;;;;;;6.35;3.38;;;;;15.20;100882.00;;;;10243837;28;20776;-74
2023/08/08 19:38:36;;;;;;;9.52;3.75;;;;;15.20;100876.00;;;;10259501;28;20246;-75
2023/08/08 19:43:38;;;;;;;6.32;4.00;;;;;15.10;100879.00;;;;10260623;28;20294;-74
2023/08/08 19:48:39;;;;;;;4.15;3.45;;;;;15.20;100875.00;;;;10259789;28;20313;-74
2023/08/08 19:53:41;;;;;;;7.70;3.80;;;;;15.10;100864.00;;;;10239195;28;20422;-75
2023/08/08 19:58:43;;;;;;;7.05;4.32;;;;;15.10;100873.00;;;;10264637;28;20815;-75
2023/08/08 20:03:44;;;;;;;6.40;3.90;;;;;15.10;100865.00;;;;10259771;28;20314;-75
2023/08/08 20:08:47;;;;;;;12.38;4.13;;;;;15.10;100857.00;;;;10242485;28;20223;-74
2023/08/08 20:13:48;;;;;;;11.63;3.90;;;;;15.10;100852.00;;;;10258150;28;20345;-74
2023/08/08 20:18:50;;;;;;;10.65;3.92;;;;;15.10;100848.00;;;;10259429;28;21768;-74
2023/08/08 20:23:52;;;;;;;5.88;3.65;;;;;15.10;100829.00;;;;10241172;28;20225;-76
2023/08/08 20:28:53;;;;;;;8.50;4.00;;;;;15.10;100835.00;;;;10257099;28;20211;-74
2023/08/08 20:33:56;;;;;;;7.18;4.35;;;;;15.10;100847.00;;;;10256313;28;20203;-75
2023/08/08 20:38:57;;;;;;;6.72;4.03;;;;;15.10;100850.00;;;;10259443;28;20286;-74
2023/08/08 20:43:59;;;;;;;8.82;3.90;;;;;15.10;100851.00;;;;10220899;28;20210;-75
2023/08/08 20:49:00;;;;;;;7.43;4.05;;;;;15.10;100869.00;;;;10256143;28;20221;-75
2023/08/08 20:54:01;;;;;;;6.53;3.88;;;;;15.10;100847.00;;;;10259343;28;20221;-74
2023/08/08 20:59:03;;;;;;;8.30;3.70;;;;;15.10;100838.00;;;;10240404;28;20895;-75
2023/08/08 21:04:05;;;;;;;6.03;4.50;;;;;15.20;100845.00;;;;10242586;28;20222;-75
2023/08/08 21:09:07;;;;;;;9.13;4.22;;;;;15.10;100847.00;;;;10259030;28;20215;-74
2023/08/08 21:14:08;;;;;;;18.27;4.70;;;;;15.10;100831.00;;;;10259858;28;20215;-73
2023/08/08 21:19:09;;;;;;;7.63;3.85;;;;;15.20;100822.00;;;;10257968;28;20208;-75
2023/08/08 21:24:11;;;;;;;15.38;4.60;;;;;15.10;100821.00;;;;10256572;28;20282;-75
2023/08/08 21:29:12;;;;;;;13.45;5.18;;;;;15.10;100835.00;;;;10239981;28;21931;-75
2023/08/08 21:34:13;;;;;;;10.07;4.97;;;;;15.20;100834.00;;;;10258723;28;20211;-75
2023/08/08 21:39:14;;;;;;;11.63;5.00;;;;;15.20;100815.00;;;;10225222;28;20878;-76
2023/08/08 21:44:16;;;;;;;10.38;5.10;;;;;15.20;100809.00;;;;10241380;28;20211;-75
2023/08/08 21:49:17;;;;;;;8.52;5.45;;;;;15.20;100808.00;;;;10242438;28;21649;-73
2023/08/08 21:54:18;;;;;;;11.25;5.80;;;;;15.20;100803.00;;;;10223041;28;20389;-75
2023/08/08 21:59:20;;;;;;;15.15;6.13;;;;;15.20;100805.00;;;;10239261;28;20898;-75
2023/08/08 22:04:21;;;;;;;10.55;5.18;;;;;15.20;100799.00;;;;10241121;28;20242;-74
2023/08/08 22:09:23;;;;;;;10.80;4.72;;;;;15.20;100801.00;;;;10254698;28;20346;-75
2023/08/08 22:14:25;;;;;;;7.57;4.32;;;;;15.20;100797.00;;;;10257848;28;20203;-75
2023/08/08 22:19:26;;;;;;;5.65;3.80;;;;;15.20;100795.00;;;;10253499;28;20210;-75
2023/08/08 22:24:27;;;;;;;8.25;3.65;;;;;15.20;100797.00;;;;10255384;28;20214;-74
2023/08/08 22:29:29;;;;;;;8.40;3.95;;;;;15.20;100798.00;;;;10257033;28;20338;-75
2023/08/08 22:34:30;;;;;;;4.72;3.83;;;;;15.20;100788.00;;;;10234701;28;20306;-74
2023/08/08 22:39:31;;;;;;;7.10;3.85;;;;;15.20;100781.00;;;;10254857;28;20212;-75
2023/08/08 22:44:32;;;;;;;8.32;3.53;;;;;15.20;100786.00;;;;10259921;28;20211;-75
2023/08/08 22:49:34;;;;;;;11.95;3.75;;;;;15.10;100771.00;;;;10262545;28;20234;-74
2023/08/08 22:54:35;;;;;;;8.50;3.92;;;;;15.10;100777.00;;;;10262579;28;20913;-75
2023/08/08 22:59:36;;;;;;;7.05;3.83;;;;;15.10;100771.00;;;;10263917;28;20203;-75
2023/08/08 23:04:38;;;;;;;13.15;4.55;;;;;15.20;100777.00;;;;10245588;28;20613;-76
2023/08/08 23:09:39;;;;;;;14.80;3.97;;;;;15.20;100773.00;;;;10245044;28;20337;-75
2023/08/08 23:14:41;;;;;;;7.03;3.97;;;;;15.20;100764.00;;;;10242903;28;20460;-75
2023/08/08 23:19:42;;;;;;;13.68;4.68;;;;;15.20;100760.00;;;;10246262;28;20297;-74
2023/08/08 23:24:44;;;;;;;9.15;3.80;;;;;15.20;100762.00;;;;10261612;28;20478;-75
2023/08/08 23:29:45;;;;;;;11.02;4.60;;;;;15.20;100749.00;;;;10257578;28;20226;-74
2023/08/08 23:34:47;;;;;;;13.60;4.18;;;;;15.20;100748.00;;;;10262283;28;20204;-75
2023/08/08 23:39:48;;;;;;;6.25;4.13;;;;;15.30;100755.00;;;;10263156;28;20214;-76
2023/08/08 23:44:49;;;;;;;7.63;4.18;;;;;15.30;100757.00;;;;10262187;28;20263;-76
2023/08/08 23:49:51;;;;;;;11.85;4.00;;;;;15.30;100758.00;;;;10262026;28;20219;-76
2023/08/08 23:54:52;;;;;;;13.18;4.20;;;;;15.30;100753.00;;;;10260979;28;20290;-75
2023/08/08 23:59:53;;;;;;;8.10;4.78;;;;;15.30;100748.00;;;;10227368;28;21337;-75
